FFT2147 KDFW-KDEN
Flight info
| Callsign | FFT2147 |
|---|---|
| Flight time | N/A |
| Altitude | 36000 |
| Route | HUDAD2 HUDAD EZEEE ZIGEE NIIXX3 |
| Aircraft | A21N/M-SDE2E3FGHIRWXY/LB1 |
Departure
| Time | 2026-05-08 05:10 |
|---|---|
| Airport | Dallas Fort Worth International Airport (KDFW) |
Arrival
| Time | N/A |
|---|---|
| Airport | Denver International Airport (KDEN) |
| Time | Latitude | Longitude | Altitude | Speed | Heading |
|---|---|---|---|---|---|
| 2026-05-08 04:53 | 32.89510 | -97.04464 | 601 ft | 0 kts | 359° |
| 2026-05-08 05:01 | 32.89505 | -97.04464 | 601 ft | 4 kts | 359° |
| 2026-05-08 05:01 | 32.89480 | -97.04464 | 601 ft | 4 kts | 360° |
| 2026-05-08 05:01 | 32.89455 | -97.04462 | 601 ft | 3 kts | 342° |
| 2026-05-08 05:02 | 32.89432 | -97.04451 | 601 ft | 4 kts | 296° |
| 2026-05-08 05:02 | 32.89431 | -97.04447 | 601 ft | 0 kts | 261° |
| 2026-05-08 05:05 | 32.89430 | -97.04458 | 601 ft | 4 kts | 265° |
| 2026-05-08 05:05 | 32.89427 | -97.04524 | 601 ft | 12 kts | 269° |
| 2026-05-08 05:06 | 32.89428 | -97.04656 | 601 ft | 19 kts | 269° |
| 2026-05-08 05:06 | 32.89400 | -97.04819 | 598 ft | 19 kts | 268° |
| 2026-05-08 05:06 | 32.89399 | -97.04963 | 602 ft | 17 kts | 271° |
| 2026-05-08 05:06 | 32.89401 | -97.05106 | 601 ft | 19 kts | 271° |
| 2026-05-08 05:07 | 32.89394 | -97.05269 | 601 ft | 15 kts | 240° |
| 2026-05-08 05:07 | 32.89355 | -97.05282 | 601 ft | 7 kts | 178° |
| 2026-05-08 05:07 | 32.89289 | -97.05281 | 601 ft | 12 kts | 183° |
| 2026-05-08 05:07 | 32.89174 | -97.05288 | 599 ft | 21 kts | 183° |
| 2026-05-08 05:08 | 32.89004 | -97.05284 | 593 ft | 28 kts | 178° |
| 2026-05-08 05:08 | 32.88790 | -97.05278 | 594 ft | 33 kts | 179° |
| 2026-05-08 05:08 | 32.88554 | -97.05282 | 593 ft | 19 kts | 196° |
| 2026-05-08 05:08 | 32.88532 | -97.05307 | 595 ft | 7 kts | 244° |
| 2026-05-08 05:09 | 32.88527 | -97.05352 | 597 ft | 0 kts | 275° |
| 2026-05-08 05:09 | 32.88536 | -97.05401 | 598 ft | 18 kts | 284° |
| 2026-05-08 05:09 | 32.88651 | -97.05497 | 598 ft | 34 kts | 9° |
| 2026-05-08 05:09 | 32.89092 | -97.05460 | 600 ft | 93 kts | 356° |
| 2026-05-08 05:10 | 32.89934 | -97.05472 | 616 ft | 153 kts | 359° |
| 2026-05-08 05:10 | 32.92346 | -97.05389 | 1267 ft | 191 kts | 18° |
| 2026-05-08 05:10 | 32.93363 | -97.04560 | 1864 ft | 174 kts | 69° |
| 2026-05-08 05:11 | 32.93411 | -97.03125 | 2102 ft | 189 kts | 117° |
| 2026-05-08 05:11 | 32.92443 | -97.02036 | 2310 ft | 205 kts | 162° |
| 2026-05-08 05:11 | 32.90971 | -97.01936 | 2517 ft | 227 kts | 184° |
| 2026-05-08 05:11 | 32.89336 | -97.02122 | 2979 ft | 240 kts | 185° |
| 2026-05-08 05:12 | 32.87683 | -97.02408 | 3604 ft | 245 kts | 192° |
| 2026-05-08 05:12 | 32.86062 | -97.03057 | 4281 ft | 249 kts | 204° |
| 2026-05-08 05:12 | 32.84480 | -97.03994 | 4989 ft | 251 kts | 207° |
| 2026-05-08 05:12 | 32.82948 | -97.04933 | 5681 ft | 252 kts | 208° |
| 2026-05-08 05:13 | 32.81385 | -97.05866 | 6419 ft | 252 kts | 208° |
| 2026-05-08 05:13 | 32.79843 | -97.06884 | 7014 ft | 257 kts | 217° |
| 2026-05-08 05:13 | 32.78559 | -97.08373 | 7543 ft | 263 kts | 237° |
| 2026-05-08 05:13 | 32.77851 | -97.10397 | 8131 ft | 268 kts | 262° |
| 2026-05-08 05:14 | 32.78002 | -97.12592 | 8761 ft | 273 kts | 285° |